createdAt,value
2022-12-14T00:01:26.269Z,-4.60
2022-12-14T00:03:59.577Z,-4.50
2022-12-14T00:06:34.869Z,-4.50
2022-12-14T00:09:08.322Z,-4.50
2022-12-14T00:11:41.977Z,-4.50
2022-12-14T00:14:15.394Z,-4.50
2022-12-14T00:16:48.954Z,-4.50
2022-12-14T00:19:22.362Z,-4.50
2022-12-14T00:21:56.970Z,-4.50
2022-12-14T00:24:30.904Z,-4.50
2022-12-14T00:27:04.140Z,-4.50
2022-12-14T00:29:37.720Z,-4.50
2022-12-14T00:32:10.957Z,-4.50
2022-12-14T00:34:44.224Z,-4.50
2022-12-14T00:37:18.838Z,-4.50
2022-12-14T00:39:52.407Z,-4.50
2022-12-14T00:42:25.986Z,-4.50
2022-12-14T00:44:59.532Z,-4.40
2022-12-14T00:47:37.482Z,-4.50
2022-12-14T00:50:13.707Z,-4.50
2022-12-14T00:52:48.514Z,-4.50
2022-12-14T00:55:21.767Z,-4.60
2022-12-14T00:57:55.003Z,-4.60
2022-12-14T01:00:28.455Z,-4.60
2022-12-14T01:03:02.031Z,-4.60
2022-12-14T01:05:35.580Z,-4.60
2022-12-14T01:08:10.449Z,-4.60
2022-12-14T01:10:43.939Z,-4.70
2022-12-14T01:13:17.556Z,-4.70
2022-12-14T01:15:50.929Z,-4.70
2022-12-14T01:18:24.419Z,-4.70
2022-12-14T01:20:58.159Z,-4.70
2022-12-14T01:23:32.780Z,-4.70
2022-12-14T01:26:06.531Z,-4.70
2022-12-14T01:28:40.412Z,-4.70
2022-12-14T01:31:16.177Z,-4.80
2022-12-14T01:33:49.952Z,-4.80
2022-12-14T01:36:25.649Z,-4.80
2022-12-14T01:39:02.902Z,-4.80
2022-12-14T01:41:38.809Z,-4.80
2022-12-14T01:44:48.558Z,-4.80
2022-12-14T01:47:27.631Z,-4.80
2022-12-14T01:50:06.948Z,-4.90
2022-12-14T01:52:42.792Z,-4.90
2022-12-14T01:55:22.816Z,-4.80
2022-12-14T01:58:02.457Z,-4.80
2022-12-14T02:00:36.135Z,-4.90
2022-12-14T02:03:13.846Z,-4.90
2022-12-14T02:05:51.837Z,-4.90
2022-12-14T02:08:26.733Z,-4.90
2022-12-14T02:11:02.993Z,-5.00
2022-12-14T02:13:39.882Z,-5.00
2022-12-14T02:16:13.212Z,-5.00
2022-12-14T02:18:46.515Z,-5.00
2022-12-14T02:21:25.290Z,-5.10
2022-12-14T02:24:45.179Z,-5.10
2022-12-14T02:27:42.436Z,-5.10
2022-12-14T02:30:19.899Z,-5.10
2022-12-14T02:33:23.645Z,-5.10
2022-12-14T02:36:01.767Z,-5.10
2022-12-14T02:38:48.319Z,-5.10
2022-12-14T02:41:38.255Z,-5.10
2022-12-14T02:44:20.066Z,-5.10
2022-12-14T02:47:03.063Z,-5.10
2022-12-14T02:49:52.252Z,-5.10
2022-12-14T02:52:36.404Z,-5.10
2022-12-14T02:55:14.287Z,-5.10
2022-12-14T02:57:53.899Z,-5.10
2022-12-14T03:00:29.435Z,-5.10
2022-12-14T03:03:06.178Z,-5.10
2022-12-14T03:05:39.816Z,-5.10
2022-12-14T03:08:15.474Z,-5.10
2022-12-14T03:10:51.754Z,-5.10
2022-12-14T03:13:30.250Z,-5.10
2022-12-14T03:16:09.129Z,-5.10
2022-12-14T03:18:51.789Z,-5.10
2022-12-14T03:21:29.691Z,-5.00
2022-12-14T03:24:08.828Z,-5.10
2022-12-14T03:26:48.128Z,-5.10
2022-12-14T03:29:26.071Z,-5.10
2022-12-14T03:32:02.812Z,-5.10
2022-12-14T03:34:41.714Z,-5.10
2022-12-14T03:37:19.872Z,-5.00
2022-12-14T03:39:53.269Z,-5.00
2022-12-14T03:42:34.291Z,-5.00
2022-12-14T03:45:17.205Z,-5.00
2022-12-14T03:48:00.646Z,-4.90
2022-12-14T03:50:42.183Z,-4.90
2022-12-14T03:53:21.621Z,-4.90
2022-12-14T03:56:03.642Z,-4.90
2022-12-14T03:58:44.106Z,-4.80
2022-12-14T04:01:29.969Z,-4.90
2022-12-14T04:04:08.597Z,-4.80
2022-12-14T04:06:48.078Z,-4.80
2022-12-14T04:09:30.391Z,-4.80
2022-12-14T04:12:28.492Z,-4.80
2022-12-14T04:15:20.745Z,-4.80
2022-12-14T04:18:12.217Z,-4.80
2022-12-14T04:20:50.541Z,-4.80
2022-12-14T04:23:45.113Z,-4.80
2022-12-14T04:26:23.973Z,-4.80
2022-12-14T04:29:18.912Z,-4.80
2022-12-14T04:31:57.592Z,-4.80
2022-12-14T04:34:34.350Z,-4.80
2022-12-14T04:37:12.914Z,-4.80
2022-12-14T04:39:53.136Z,-4.80
2022-12-14T04:42:31.862Z,-4.90
2022-12-14T04:45:09.865Z,-4.80
2022-12-14T04:47:50.213Z,-4.80
2022-12-14T04:50:30.429Z,-4.80
2022-12-14T04:53:08.997Z,-4.80
2022-12-14T04:55:50.168Z,-4.80
2022-12-14T04:58:27.359Z,-4.80
2022-12-14T05:01:16.957Z,-4.90
2022-12-14T05:03:55.491Z,-4.90
2022-12-14T05:06:38.959Z,-4.90
2022-12-14T05:09:18.149Z,-5.00
2022-12-14T05:12:01.221Z,-5.00
2022-12-14T05:14:38.764Z,-5.00
2022-12-14T05:17:12.534Z,-5.10
2022-12-14T05:19:48.548Z,-5.10
2022-12-14T05:22:22.377Z,-5.10
2022-12-14T05:24:55.630Z,-5.10
2022-12-14T05:27:31.027Z,-5.20
2022-12-14T05:30:04.882Z,-5.20
2022-12-14T05:32:38.345Z,-5.20
2022-12-14T05:35:14.037Z,-5.30
2022-12-14T05:37:49.372Z,-5.30
2022-12-14T05:40:22.974Z,-5.30
2022-12-14T05:43:07.016Z,-5.30
2022-12-14T05:45:40.610Z,-5.40
2022-12-14T05:48:13.919Z,-5.50
2022-12-14T05:50:47.441Z,-5.50
2022-12-14T05:53:21.004Z,-5.70
2022-12-14T05:55:54.412Z,-5.80
2022-12-14T05:58:29.076Z,-5.80
2022-12-14T06:01:03.362Z,-5.80
2022-12-14T06:03:36.785Z,-5.80
2022-12-14T06:06:11.985Z,-5.80
2022-12-14T06:08:46.596Z,-5.80
2022-12-14T06:11:22.394Z,-5.80
2022-12-14T06:13:57.022Z,-5.80
2022-12-14T06:16:48.286Z,-5.90
2022-12-14T06:19:21.812Z,-5.90
2022-12-14T06:21:55.363Z,-5.90
2022-12-14T06:24:28.633Z,-5.90
2022-12-14T06:27:02.049Z,-5.90
2022-12-14T06:29:36.703Z,-5.90
2022-12-14T06:32:09.988Z,-5.90
2022-12-14T06:34:43.230Z,-6.00
2022-12-14T06:37:16.547Z,-5.90
2022-12-14T06:39:54.289Z,-5.90
2022-12-14T06:42:28.309Z,-5.90
2022-12-14T06:45:02.993Z,-5.80
2022-12-14T06:47:36.396Z,-5.80
2022-12-14T06:50:10.436Z,-5.80
2022-12-14T06:52:43.901Z,-5.70
2022-12-14T06:55:17.426Z,-5.70
2022-12-14T06:57:52.656Z,-5.70
2022-12-14T07:00:27.375Z,-5.70
2022-12-14T07:03:00.721Z,-5.70
2022-12-14T07:05:34.066Z,-5.60
2022-12-14T07:08:07.641Z,-5.60
2022-12-14T07:10:40.918Z,-5.50
2022-12-14T07:13:14.187Z,-5.50
2022-12-14T07:15:54.487Z,-5.50
2022-12-14T07:18:28.513Z,-5.50
2022-12-14T07:21:04.202Z,-5.50
2022-12-14T07:23:38.870Z,-5.40
2022-12-14T07:26:15.321Z,-5.40
2022-12-14T07:28:49.400Z,-5.40
2022-12-14T07:31:26.245Z,-5.30
2022-12-14T07:34:00.827Z,-5.30
2022-12-14T07:36:34.440Z,-5.30
2022-12-14T07:39:07.950Z,-5.20
2022-12-14T07:41:41.425Z,-5.10
2022-12-14T07:44:15.399Z,-5.10
2022-12-14T07:46:50.240Z,-5.10
2022-12-14T07:49:23.566Z,-5.10
2022-12-14T07:51:57.152Z,-5.00
2022-12-14T07:54:30.858Z,-5.00
2022-12-14T07:57:04.110Z,-5.00
2022-12-14T07:59:37.441Z,-5.00
2022-12-14T08:02:13.691Z,-5.00
2022-12-14T08:04:47.572Z,-4.90
2022-12-14T08:07:20.862Z,-4.90
2022-12-14T08:09:54.100Z,-4.70
2022-12-14T08:12:27.523Z,-4.60
2022-12-14T08:15:01.025Z,-4.50
2022-12-14T08:17:35.669Z,-4.40
2022-12-14T08:20:10.937Z,-4.30
2022-12-14T08:22:44.174Z,-4.30
2022-12-14T08:25:17.725Z,-4.20
2022-12-14T08:27:51.010Z,-4.10
2022-12-14T08:30:24.924Z,-4.10
2022-12-14T08:33:00.165Z,-4.00
2022-12-14T08:35:33.853Z,-3.90
2022-12-14T08:38:07.101Z,-3.80
2022-12-14T08:40:40.896Z,-3.70
2022-12-14T08:43:20.308Z,-3.70
2022-12-14T08:45:56.744Z,-3.60
2022-12-14T08:48:31.456Z,-3.50
2022-12-14T08:51:05.802Z,-3.50
2022-12-14T08:53:40.091Z,-3.40
2022-12-14T08:56:17.109Z,-3.30
2022-12-14T08:58:50.497Z,-3.30
2022-12-14T09:01:32.294Z,-3.10
2022-12-14T09:04:09.517Z,-3.10
2022-12-14T09:06:42.770Z,-3.00
2022-12-14T09:09:16.795Z,-3.00
2022-12-14T09:11:50.221Z,-2.90
2022-12-14T09:14:23.492Z,-2.80
2022-12-14T09:16:56.907Z,-2.70
2022-12-14T09:19:31.750Z,-2.70
2022-12-14T09:22:05.466Z,-2.60
2022-12-14T09:24:38.995Z,-2.50
2022-12-14T09:27:12.438Z,-2.40
2022-12-14T09:29:45.703Z,-2.30
2022-12-14T09:32:19.342Z,-2.30
2022-12-14T09:34:54.046Z,-2.30
2022-12-14T09:37:27.549Z,-2.40
2022-12-14T09:40:00.831Z,-2.30
2022-12-14T09:42:53.561Z,-2.30
2022-12-14T09:45:31.666Z,-2.30
2022-12-14T09:48:11.606Z,-2.30
2022-12-14T09:50:49.042Z,-2.40
2022-12-14T09:53:23.310Z,-2.40
2022-12-14T09:55:59.074Z,-2.40
2022-12-14T09:58:35.142Z,-2.40
2022-12-14T10:01:27.557Z,-2.40
2022-12-14T10:04:08.219Z,-2.40
2022-12-14T10:06:48.891Z,-2.40
2022-12-14T10:09:30.598Z,-2.40
2022-12-14T10:12:15.434Z,-2.40
2022-12-14T10:15:03.358Z,-2.50
2022-12-14T10:17:50.464Z,-2.40
2022-12-14T10:20:30.992Z,-2.30
2022-12-14T10:23:06.314Z,-2.40
2022-12-14T10:25:40.951Z,-2.30
2022-12-14T10:28:19.375Z,-2.30
2022-12-14T10:30:58.857Z,-2.40
2022-12-14T10:33:33.194Z,-2.40
2022-12-14T10:36:18.234Z,-2.40
2022-12-14T10:38:59.625Z,-2.40
2022-12-14T10:41:39.598Z,-2.40
2022-12-14T10:44:22.941Z,-2.30
2022-12-14T10:47:03.898Z,-2.30
2022-12-14T10:49:44.732Z,-2.30
2022-12-14T10:52:21.770Z,-2.30
2022-12-14T10:55:01.716Z,-2.20
2022-12-14T10:57:34.996Z,-2.20
2022-12-14T11:00:22.509Z,-2.30
2022-12-14T11:02:59.015Z,-2.20
2022-12-14T11:05:38.357Z,-2.20
2022-12-14T11:08:31.918Z,-2.20
2022-12-14T11:11:16.972Z,-2.20
2022-12-14T11:13:54.099Z,-2.30
2022-12-14T11:16:36.817Z,-2.20
2022-12-14T11:19:18.011Z,-2.20
2022-12-14T11:21:53.035Z,-2.20
2022-12-14T11:24:28.757Z,-2.10
2022-12-14T11:27:06.313Z,-2.10
2022-12-14T11:29:41.319Z,-2.10
2022-12-14T11:32:20.636Z,-2.10
2022-12-14T11:34:59.383Z,-2.10
2022-12-14T11:37:33.497Z,-2.10
2022-12-14T11:40:08.720Z,-2.10
2022-12-14T11:42:49.911Z,-2.10
2022-12-14T11:45:32.390Z,-2.10
2022-12-14T11:48:20.319Z,-2.10
2022-12-14T11:50:55.288Z,-2.10
2022-12-14T11:53:28.540Z,-2.10
2022-12-14T11:56:06.050Z,-2.00
2022-12-14T11:58:49.084Z,-2.00
2022-12-14T12:01:27.257Z,-1.90
2022-12-14T12:04:02.358Z,-1.90
2022-12-14T12:06:35.895Z,-1.90
2022-12-14T12:09:24.545Z,-1.80
2022-12-14T12:11:58.796Z,-1.80
2022-12-14T12:14:39.271Z,-1.80
2022-12-14T12:17:20.077Z,-1.80
2022-12-14T12:19:53.596Z,-1.80
2022-12-14T12:22:27.050Z,-1.80
2022-12-14T12:28:05.513Z,-1.70
2022-12-14T12:30:44.375Z,-1.70
2022-12-14T12:33:25.570Z,-1.70
2022-12-14T12:36:02.783Z,-1.60
2022-12-14T12:38:50.386Z,-1.60
2022-12-14T12:41:30.685Z,-1.60
2022-12-14T12:44:19.024Z,-1.50
2022-12-14T12:47:25.127Z,-1.60
2022-12-14T12:50:02.111Z,-1.50
2022-12-14T12:52:49.721Z,-1.60
2022-12-14T12:55:24.998Z,-1.60
2022-12-14T12:58:03.067Z,-1.60
2022-12-14T13:00:39.217Z,-1.60
2022-12-14T13:03:21.817Z,-1.60
2022-12-14T13:05:57.717Z,-1.60
2022-12-14T13:08:35.010Z,-1.60
2022-12-14T13:11:31.322Z,-1.70
2022-12-14T13:14:14.381Z,-1.70
2022-12-14T13:16:48.661Z,-1.70
2022-12-14T13:22:28.715Z,-1.80
2022-12-14T13:25:09.531Z,-1.80
2022-12-14T13:28:19.655Z,-1.80
2022-12-14T13:31:11.999Z,-1.80
2022-12-14T13:34:22.549Z,-1.80
2022-12-14T13:37:32.112Z,-1.80
2022-12-14T13:40:34.699Z,-1.80
2022-12-14T13:43:28.036Z,-1.90
2022-12-14T13:46:08.531Z,-1.90
2022-12-14T13:48:44.271Z,-1.90
2022-12-14T13:51:28.250Z,-1.90
2022-12-14T13:54:06.859Z,-1.90
2022-12-14T13:56:40.874Z,-2.00
2022-12-14T13:59:28.009Z,-2.00
2022-12-14T14:02:02.751Z,-2.00
2022-12-14T14:04:36.755Z,-2.00
2022-12-14T14:07:49.230Z,-2.00
2022-12-14T14:10:35.061Z,-2.10
2022-12-14T14:13:42.877Z,-2.10
2022-12-14T14:16:28.502Z,-2.10
2022-12-14T14:19:06.729Z,-2.00
2022-12-14T14:22:06.101Z,-2.10
2022-12-14T14:24:57.543Z,-2.00
2022-12-14T14:27:37.817Z,-2.00
2022-12-14T14:30:27.212Z,-2.00
2022-12-14T14:33:35.902Z,-2.00
2022-12-14T14:36:07.839Z,-2.00
2022-12-14T14:38:42.957Z,-2.00
2022-12-14T14:41:23.718Z,-2.00
2022-12-14T14:44:02.047Z,-2.00
2022-12-14T14:46:38.285Z,-2.00
2022-12-14T14:49:23.682Z,-2.00
2022-12-14T14:51:57.009Z,-2.00
2022-12-14T14:55:11.048Z,-2.00
2022-12-14T14:57:36.082Z,-2.00
2022-12-14T15:00:13.727Z,-2.00
2022-12-14T15:02:47.534Z,-2.00
2022-12-14T15:05:42.408Z,-2.00
2022-12-14T15:08:20.624Z,-2.00
2022-12-14T15:10:55.975Z,-2.10
2022-12-14T15:13:34.624Z,-2.00
2022-12-14T15:16:25.810Z,-2.10
2022-12-14T15:19:24.694Z,-2.00
2022-12-14T15:22:00.539Z,-2.00
2022-12-14T15:24:38.870Z,-2.00
2022-12-14T15:27:19.747Z,-2.00
2022-12-14T15:29:53.893Z,-2.10
2022-12-14T15:32:28.726Z,-2.00
2022-12-14T15:35:06.946Z,-2.10
2022-12-14T15:37:45.962Z,-2.10
2022-12-14T15:40:25.335Z,-2.00
2022-12-14T15:43:00.841Z,-2.00
2022-12-14T15:45:44.105Z,-2.10
2022-12-14T15:48:24.704Z,-2.10
2022-12-14T15:51:03.210Z,-2.10
2022-12-14T15:53:41.932Z,-2.20
2022-12-14T15:56:22.879Z,-2.20
2022-12-14T15:58:59.236Z,-2.10
2022-12-14T16:01:36.397Z,-2.20
2022-12-14T16:04:16.537Z,-2.10
2022-12-14T16:06:57.100Z,-2.10
2022-12-14T16:09:34.996Z,-2.10
2022-12-14T16:12:16.665Z,-2.10
2022-12-14T16:14:54.384Z,-2.10
2022-12-14T16:17:32.193Z,-2.10
2022-12-14T16:20:19.399Z,-2.10
2022-12-14T16:23:02.004Z,-2.10
2022-12-14T16:25:36.984Z,-2.10
2022-12-14T16:28:28.414Z,-2.00
2022-12-14T16:31:04.379Z,-2.00
2022-12-14T16:33:39.765Z,-2.10
2022-12-14T16:36:25.505Z,-2.10
2022-12-14T16:39:01.201Z,-2.20
2022-12-14T16:41:36.991Z,-2.20
2022-12-14T16:44:20.378Z,-2.20
2022-12-14T16:47:26.688Z,-2.20
2022-12-14T16:50:00.705Z,-2.20
2022-12-14T16:52:36.933Z,-2.30
2022-12-14T16:55:14.159Z,-2.30
2022-12-14T16:57:55.073Z,-2.40
2022-12-14T17:00:30.736Z,-2.40
2022-12-14T17:03:06.859Z,-2.40
2022-12-14T17:05:42.715Z,-2.40
2022-12-14T17:08:18.531Z,-2.40
2022-12-14T17:10:52.317Z,-2.30
2022-12-14T17:13:25.894Z,-2.30
2022-12-14T17:16:01.471Z,-2.30
2022-12-14T17:18:38.634Z,-2.30
2022-12-14T17:21:18.560Z,-2.30
2022-12-14T17:23:54.067Z,-2.30
2022-12-14T17:26:30.612Z,-2.40
2022-12-14T17:29:04.024Z,-2.40
2022-12-14T17:31:41.844Z,-2.30
2022-12-14T17:34:18.202Z,-2.40
2022-12-14T17:36:52.106Z,-2.30
2022-12-14T17:39:28.759Z,-2.30
2022-12-14T17:42:02.064Z,-2.30
2022-12-14T17:44:35.391Z,-2.30
2022-12-14T17:47:08.934Z,-2.20
2022-12-14T17:49:43.107Z,-2.20
2022-12-14T17:52:21.447Z,-2.10
2022-12-14T17:54:56.329Z,-2.20
2022-12-14T17:57:29.624Z,-2.10
2022-12-14T18:00:20.793Z,-2.10
2022-12-14T18:02:54.320Z,-2.10
2022-12-14T18:05:27.921Z,-2.10
2022-12-14T18:08:01.290Z,-2.10
2022-12-14T18:10:36.850Z,-2.10
2022-12-14T18:13:12.383Z,-2.00
2022-12-14T18:15:50.007Z,-2.00
2022-12-14T18:18:27.715Z,-2.00
2022-12-14T18:21:03.410Z,-1.90
2022-12-14T18:23:36.947Z,-1.90
2022-12-14T18:26:12.918Z,-1.90
2022-12-14T18:28:46.227Z,-1.90
2022-12-14T18:31:25.488Z,-1.80
2022-12-14T18:33:58.910Z,-1.80
2022-12-14T18:36:32.434Z,-1.70
2022-12-14T18:39:05.889Z,-1.70
2022-12-14T18:41:40.876Z,-1.70
2022-12-14T18:44:14.437Z,-1.70
2022-12-14T18:46:49.415Z,-1.60
2022-12-14T18:49:23.041Z,-1.60
2022-12-14T18:51:56.438Z,-1.50
2022-12-14T18:54:29.770Z,-1.50
2022-12-14T18:57:05.086Z,-1.50
2022-12-14T18:59:42.379Z,-1.50
2022-12-14T19:02:16.405Z,-1.50
2022-12-14T19:04:50.943Z,-1.50
2022-12-14T19:07:24.780Z,-1.40
2022-12-14T19:09:58.325Z,-1.40
2022-12-14T19:12:33.106Z,-1.40
2022-12-14T19:15:08.161Z,-1.40
2022-12-14T19:17:41.507Z,-1.40
2022-12-14T19:20:16.572Z,-1.40
2022-12-14T19:22:50.381Z,-1.40
2022-12-14T19:25:24.611Z,-1.40
2022-12-14T19:28:26.102Z,-1.40
2022-12-14T19:30:53.823Z,-1.30
2022-12-14T19:33:27.693Z,-1.40
2022-12-14T19:36:01.497Z,-1.40
2022-12-14T19:38:35.921Z,-1.40
2022-12-14T19:41:12.237Z,-1.30
2022-12-14T19:43:47.154Z,-1.30
2022-12-14T19:46:20.527Z,-1.30
2022-12-14T19:48:53.946Z,-1.40
2022-12-14T19:51:27.825Z,-1.40
2022-12-14T19:54:03.018Z,-1.40
2022-12-14T19:56:36.605Z,-1.40
2022-12-14T19:59:11.460Z,-1.40
2022-12-14T20:01:48.001Z,-1.40
2022-12-14T20:04:24.193Z,-1.40
2022-12-14T20:06:57.727Z,-1.40
2022-12-14T20:09:31.094Z,-1.40
2022-12-14T20:12:04.853Z,-1.40
2022-12-14T20:14:40.227Z,-1.50
2022-12-14T20:17:13.550Z,-1.40
2022-12-14T20:19:46.907Z,-1.40
2022-12-14T20:22:20.198Z,-1.40
2022-12-14T20:24:53.497Z,-1.40
2022-12-14T20:27:26.790Z,-1.30
2022-12-14T20:30:01.430Z,-1.30
2022-12-14T20:32:34.813Z,-1.30
2022-12-14T20:35:10.914Z,-1.20
2022-12-14T20:37:44.211Z,-1.20
2022-12-14T20:40:17.626Z,-1.20
2022-12-14T20:42:50.911Z,-1.10
2022-12-14T20:45:26.046Z,-1.10
2022-12-14T20:47:59.370Z,-1.10
2022-12-14T20:50:32.787Z,-1.00
2022-12-14T20:53:06.503Z,-1.00
2022-12-14T20:55:39.770Z,-1.00
2022-12-14T20:58:13.017Z,-1.00
2022-12-14T21:00:47.805Z,-1.00
2022-12-14T21:03:21.219Z,-1.00
2022-12-14T21:05:54.563Z,-1.00
2022-12-14T21:08:28.186Z,-1.00
2022-12-14T21:11:23.993Z,-1.00
2022-12-14T21:13:57.358Z,-1.00
2022-12-14T21:16:32.052Z,-1.00
2022-12-14T21:19:05.778Z,-1.00
2022-12-14T21:21:39.577Z,-1.00
2022-12-14T21:24:25.709Z,-1.00
2022-12-14T21:27:08.841Z,-0.90
2022-12-14T21:29:42.191Z,-0.90
2022-12-14T21:32:18.273Z,-0.90
2022-12-14T21:34:51.854Z,-0.90
2022-12-14T21:37:25.308Z,-0.90
2022-12-14T21:39:58.614Z,-0.90
2022-12-14T21:42:31.018Z,-0.90
2022-12-14T21:45:04.993Z,-0.90
2022-12-14T21:47:39.670Z,-0.90
2022-12-14T21:50:13.155Z,-0.90
2022-12-14T21:52:46.518Z,-0.90
2022-12-14T21:55:19.902Z,-0.90
2022-12-14T21:58:10.434Z,-0.90
2022-12-14T22:00:43.846Z,-0.90
2022-12-14T22:03:18.607Z,-0.90
2022-12-14T22:05:51.915Z,-0.90
2022-12-14T22:08:25.228Z,-0.90
2022-12-14T22:11:03.225Z,-0.80
2022-12-14T22:13:36.531Z,-0.80
2022-12-14T22:16:10.150Z,-0.80
2022-12-14T22:18:44.859Z,-0.80
2022-12-14T22:21:18.163Z,-0.80
2022-12-14T22:23:52.159Z,-0.70
2022-12-14T22:26:25.846Z,-0.70
2022-12-14T22:28:59.136Z,-0.70
2022-12-14T22:31:32.760Z,-0.60
2022-12-14T22:34:08.928Z,-0.60
2022-12-14T22:36:42.243Z,-0.60
2022-12-14T22:39:15.760Z,-0.50
2022-12-14T22:41:50.596Z,-0.50
2022-12-14T22:44:23.847Z,-0.50
2022-12-14T22:46:57.798Z,-0.50
2022-12-14T22:49:32.497Z,-0.50
2022-12-14T22:52:05.894Z,-0.50
2022-12-14T22:54:40.696Z,-0.50
2022-12-14T22:57:18.287Z,-0.50
2022-12-14T22:59:56.775Z,-0.50
2022-12-14T23:02:31.210Z,-0.40
2022-12-14T23:05:08.090Z,-0.40
2022-12-14T23:07:41.688Z,-0.40
2022-12-14T23:10:32.960Z,-0.50
2022-12-14T23:13:23.777Z,-0.40
2022-12-14T23:16:14.803Z,-0.40
2022-12-14T23:19:05.671Z,-0.40
2022-12-14T23:21:58.517Z,-0.40
2022-12-14T23:24:50.472Z,-0.40
2022-12-14T23:27:41.338Z,-0.40
2022-12-14T23:30:32.110Z,-0.40
2022-12-14T23:33:22.812Z,-0.40
2022-12-14T23:36:13.788Z,-0.40
2022-12-14T23:39:06.306Z,-0.40
2022-12-14T23:41:57.024Z,-0.40
2022-12-14T23:44:47.770Z,-0.30
2022-12-14T23:47:38.884Z,-0.30
2022-12-14T23:50:29.762Z,-0.30
2022-12-14T23:53:23.867Z,-0.30
2022-12-14T23:56:16.427Z,-0.30
2022-12-14T23:59:10.395Z,-0.30
